createdAt,value
2023-01-30T00:01:02.270Z,1.26
2023-01-30T00:03:29.985Z,1.46
2023-01-30T00:05:57.676Z,0.98
2023-01-30T00:08:25.441Z,0.51
2023-01-30T00:10:53.154Z,0.13
2023-01-30T00:13:20.943Z,0.28
2023-01-30T00:15:48.709Z,0.90
2023-01-30T00:18:16.507Z,1.21
2023-01-30T00:20:44.168Z,0.73
2023-01-30T00:23:11.947Z,1.10
2023-01-30T00:25:39.979Z,1.24
2023-01-30T00:28:07.806Z,1.31
2023-01-30T00:30:35.578Z,1.43
2023-01-30T00:33:03.420Z,1.28
2023-01-30T00:35:31.178Z,1.12
2023-01-30T00:37:59.184Z,1.01
2023-01-30T00:40:27.676Z,0.84
2023-01-30T00:43:14.632Z,0.16
2023-01-30T00:46:02.070Z,0.60
2023-01-30T00:48:29.780Z,1.09
2023-01-30T00:50:57.623Z,0.67
2023-01-30T00:53:25.526Z,0.83
2023-01-30T00:55:53.616Z,1.12
2023-01-30T00:58:21.974Z,1.25
2023-01-30T01:00:50.225Z,0.97
2023-01-30T01:03:18.190Z,1.02
2023-01-30T01:05:46.094Z,0.66
2023-01-30T01:08:15.066Z,0.67
2023-01-30T01:10:42.961Z,0.93
2023-01-30T01:13:10.873Z,0.97
2023-01-30T01:15:38.663Z,1.07
2023-01-30T01:18:06.462Z,0.36
2023-01-30T01:20:34.163Z,1.03
2023-01-30T01:23:03.778Z,0.56
2023-01-30T01:25:31.457Z,1.23
2023-01-30T01:27:59.191Z,1.02
2023-01-30T01:30:26.920Z,0.99
2023-01-30T01:32:54.708Z,0.50
2023-01-30T01:35:22.434Z,0.68
2023-01-30T01:37:54.755Z,0.16
2023-01-30T01:40:41.635Z,0.32
2023-01-30T01:43:15.453Z,0.35
2023-01-30T01:45:43.520Z,0.68
2023-01-30T01:48:21.293Z,0.36
2023-01-30T01:50:52.414Z,0.38
2023-01-30T01:53:21.588Z,-0.60
2023-01-30T01:55:50.278Z,-0.56
2023-01-30T01:58:25.766Z,-0.46
2023-01-30T02:00:54.194Z,-1.12
2023-01-30T02:03:23.401Z,-0.68
2023-01-30T02:05:52.635Z,-0.81
2023-01-30T02:08:23.418Z,0.10
2023-01-30T02:11:18.180Z,0.19
2023-01-30T02:13:46.640Z,-0.72
2023-01-30T02:16:14.554Z,-0.87
2023-01-30T02:18:42.354Z,-0.37
2023-01-30T02:21:41.242Z,0.55
2023-01-30T02:24:11.687Z,0.58
2023-01-30T02:26:57.691Z,0.10
2023-01-30T02:29:35.675Z,0.60
2023-01-30T02:32:25.036Z,-0.21
2023-01-30T02:35:05.542Z,-0.63
2023-01-30T02:38:11.001Z,-0.13
2023-01-30T02:40:44.845Z,-0.93
2023-01-30T02:43:31.068Z,-0.66
2023-01-30T02:46:14.030Z,-0.03
2023-01-30T02:49:09.162Z,0.61
2023-01-30T02:51:39.569Z,0.18
2023-01-30T02:54:07.949Z,0.60
2023-01-30T02:56:57.198Z,0.58
2023-01-30T02:59:32.160Z,0.77
2023-01-30T03:02:37.633Z,0.56
2023-01-30T03:05:14.606Z,0.31
2023-01-30T03:08:18.308Z,0.16
2023-01-30T03:10:52.072Z,0.62
2023-01-30T03:13:20.284Z,0.67
2023-01-30T03:15:54.237Z,0.79
2023-01-30T03:18:22.619Z,0.73
2023-01-30T03:20:51.503Z,0.98
2023-01-30T03:23:19.792Z,1.07
2023-01-30T03:25:47.732Z,1.19
2023-01-30T03:28:18.158Z,1.07
2023-01-30T03:30:45.909Z,1.23
2023-01-30T03:33:14.934Z,1.06
2023-01-30T03:35:48.224Z,1.06
2023-01-30T03:38:16.143Z,1.00
2023-01-30T03:40:44.431Z,0.87
2023-01-30T03:43:12.328Z,0.87
2023-01-30T03:45:40.104Z,0.85
2023-01-30T03:48:08.252Z,1.09
2023-01-30T03:50:35.975Z,1.10
2023-01-30T03:53:04.011Z,0.77
2023-01-30T03:55:31.682Z,0.89
2023-01-30T03:57:59.601Z,1.03
2023-01-30T04:00:32.208Z,1.13
2023-01-30T04:03:00.983Z,1.18
2023-01-30T04:05:29.078Z,0.91
2023-01-30T04:08:03.231Z,1.16
2023-01-30T04:10:31.483Z,1.35
2023-01-30T04:12:59.151Z,1.26
2023-01-30T04:15:27.498Z,1.14
2023-01-30T04:18:13.837Z,0.95
2023-01-30T04:21:01.834Z,1.20
2023-01-30T04:23:35.742Z,1.30
2023-01-30T04:26:05.098Z,1.13
2023-01-30T04:28:36.202Z,1.11
2023-01-30T04:31:04.645Z,1.07
2023-01-30T04:33:41.465Z,1.14
2023-01-30T04:36:10.414Z,1.01
2023-01-30T04:38:38.598Z,1.14
2023-01-30T04:41:07.693Z,0.85
2023-01-30T04:43:38.602Z,1.15
2023-01-30T04:46:15.345Z,1.20
2023-01-30T04:48:43.706Z,0.73
2023-01-30T04:51:11.675Z,0.73
2023-01-30T04:53:39.676Z,0.80
2023-01-30T04:56:08.224Z,0.84
2023-01-30T04:58:36.148Z,0.80
2023-01-30T05:01:23.350Z,0.74
2023-01-30T05:03:52.599Z,0.77
2023-01-30T05:06:20.634Z,0.54
2023-01-30T05:08:52.325Z,0.77
2023-01-30T05:11:20.426Z,0.68
2023-01-30T05:13:48.284Z,0.47
2023-01-30T05:16:16.379Z,0.25
2023-01-30T05:18:44.338Z,0.13
2023-01-30T05:21:19.464Z,0.54
2023-01-30T05:23:47.265Z,0.68
2023-01-30T05:26:15.189Z,0.52
2023-01-30T05:28:43.048Z,0.39
2023-01-30T05:31:12.098Z,0.55
2023-01-30T05:33:40.573Z,0.67
2023-01-30T05:36:08.898Z,0.47
2023-01-30T05:38:36.623Z,0.82
2023-01-30T05:41:05.660Z,0.90
2023-01-30T05:43:33.845Z,1.00
2023-01-30T05:46:02.307Z,0.88
2023-01-30T05:48:30.080Z,0.83
2023-01-30T05:50:58.440Z,0.76
2023-01-30T05:53:30.969Z,0.84
2023-01-30T05:55:59.834Z,0.77
2023-01-30T05:58:27.882Z,0.73
2023-01-30T06:01:00.132Z,0.80
2023-01-30T06:03:27.927Z,0.79
2023-01-30T06:05:55.716Z,0.86
2023-01-30T06:08:23.719Z,0.89
2023-01-30T06:10:51.463Z,0.95
2023-01-30T06:13:19.146Z,1.02
2023-01-30T06:15:46.993Z,1.14
2023-01-30T06:18:14.749Z,1.12
2023-01-30T06:20:48.149Z,1.08
2023-01-30T06:23:16.067Z,0.72
2023-01-30T06:25:44.932Z,0.86
2023-01-30T06:28:12.805Z,0.83
2023-01-30T06:30:40.628Z,0.60
2023-01-30T06:33:08.588Z,0.80
2023-01-30T06:35:39.451Z,0.95
2023-01-30T06:38:09.621Z,0.85
2023-01-30T06:40:38.135Z,0.88
2023-01-30T06:43:05.826Z,0.90
2023-01-30T06:45:33.738Z,0.91
2023-01-30T06:48:01.430Z,0.89
2023-01-30T06:50:29.347Z,0.89
2023-01-30T06:52:57.127Z,0.89
2023-01-30T06:55:26.566Z,1.10
2023-01-30T06:58:08.232Z,1.18
2023-01-30T07:00:36.241Z,1.01
2023-01-30T07:03:04.048Z,1.05
2023-01-30T07:05:31.899Z,1.13
2023-01-30T07:07:59.560Z,1.14
2023-01-30T07:10:29.148Z,1.01
2023-01-30T07:12:56.828Z,0.80
2023-01-30T07:15:24.556Z,0.83
2023-01-30T07:17:52.224Z,0.66
2023-01-30T07:20:20.040Z,0.79
2023-01-30T07:22:55.043Z,0.96
2023-01-30T07:25:23.629Z,0.81
2023-01-30T07:27:56.678Z,0.85
2023-01-30T07:30:25.063Z,0.95
2023-01-30T07:32:54.621Z,0.94
2023-01-30T07:35:23.169Z,0.90
2023-01-30T07:37:51.292Z,0.79
2023-01-30T07:40:19.779Z,0.91
2023-01-30T07:43:10.584Z,1.08
2023-01-30T07:45:41.341Z,0.96
2023-01-30T07:48:09.993Z,0.73
2023-01-30T07:50:37.691Z,0.78
2023-01-30T07:53:06.077Z,0.95
2023-01-30T07:55:34.099Z,1.03
2023-01-30T07:58:01.841Z,1.07
2023-01-30T08:00:29.671Z,0.91
2023-01-30T08:02:57.340Z,1.07
2023-01-30T08:05:25.221Z,0.84
2023-01-30T08:07:53.695Z,0.94
2023-01-30T08:10:21.668Z,0.84
2023-01-30T08:12:52.419Z,0.83
2023-01-30T08:15:21.955Z,0.78
2023-01-30T08:17:55.265Z,1.03
2023-01-30T08:20:23.549Z,1.13
2023-01-30T08:22:51.281Z,1.22
2023-01-30T08:25:19.164Z,1.26
2023-01-30T08:27:46.888Z,1.07
2023-01-30T08:30:14.782Z,1.20
2023-01-30T08:32:42.462Z,0.98
2023-01-30T08:35:10.435Z,0.89
2023-01-30T08:37:41.603Z,0.95
2023-01-30T08:40:09.939Z,0.96
2023-01-30T08:42:37.671Z,0.95
2023-01-30T08:45:05.896Z,0.89
2023-01-30T08:47:35.618Z,1.00
2023-01-30T08:50:04.337Z,1.09
2023-01-30T08:52:35.294Z,1.08
2023-01-30T08:55:03.566Z,1.11
2023-01-30T08:57:32.613Z,0.94
2023-01-30T09:00:00.638Z,0.98
2023-01-30T09:02:28.461Z,0.95
2023-01-30T09:04:56.228Z,0.75
2023-01-30T09:07:23.968Z,1.03
2023-01-30T09:09:51.710Z,0.45
2023-01-30T09:12:19.395Z,0.83
2023-01-30T09:14:47.137Z,0.85
2023-01-30T09:17:14.827Z,0.91
2023-01-30T09:19:42.597Z,0.66
2023-01-30T09:22:10.384Z,0.74
2023-01-30T09:24:38.122Z,-0.20
2023-01-30T09:27:05.846Z,0.89
2023-01-30T09:29:33.586Z,0.87
2023-01-30T09:32:01.268Z,0.32
2023-01-30T09:34:29.126Z,0.82
2023-01-30T09:37:02.555Z,0.48
2023-01-30T09:39:31.483Z,0.87
2023-01-30T09:42:05.259Z,0.93
2023-01-30T09:45:10.115Z,0.62
2023-01-30T09:48:02.928Z,0.43
2023-01-30T09:50:42.918Z,0.14
2023-01-30T09:53:29.970Z,0.22
2023-01-30T09:55:58.265Z,0.62
2023-01-30T09:58:27.689Z,0.49
2023-01-30T10:00:59.762Z,-0.40
2023-01-30T10:03:34.948Z,0.23
2023-01-30T10:06:05.853Z,0.94
2023-01-30T10:08:36.546Z,0.57
2023-01-30T10:11:16.147Z,0.50
2023-01-30T10:13:50.675Z,0.48
2023-01-30T10:16:22.933Z,0.62
2023-01-30T10:19:35.621Z,0.26
2023-01-30T10:22:18.977Z,1.05
2023-01-30T10:24:55.447Z,0.39
2023-01-30T10:27:23.152Z,0.85
2023-01-30T10:30:01.744Z,0.95
2023-01-30T10:32:41.841Z,0.73
2023-01-30T10:35:31.257Z,1.25
2023-01-30T10:38:12.776Z,1.29
2023-01-30T10:40:47.208Z,1.39
2023-01-30T10:43:41.417Z,1.50
2023-01-30T10:46:19.315Z,1.51
2023-01-30T10:49:05.123Z,1.20
2023-01-30T10:52:10.416Z,0.96
2023-01-30T10:54:42.904Z,1.51
2023-01-30T10:57:19.828Z,1.62
2023-01-30T10:59:54.737Z,1.72
2023-01-30T11:02:38.678Z,1.44
2023-01-30T11:05:17.343Z,1.32
2023-01-30T11:07:46.312Z,-0.08
2023-01-30T11:10:24.967Z,0.89
2023-01-30T11:12:56.949Z,1.24
2023-01-30T11:15:27.407Z,1.08
2023-01-30T11:18:27.743Z,1.27
2023-01-30T11:21:08.211Z,1.29
2023-01-30T11:23:40.353Z,1.32
2023-01-30T11:26:11.576Z,1.03
2023-01-30T11:28:41.668Z,1.40
2023-01-30T11:31:40.561Z,0.60
2023-01-30T11:34:14.936Z,1.12
2023-01-30T11:36:42.697Z,1.18
2023-01-30T11:39:13.526Z,1.56
2023-01-30T11:42:05.842Z,1.40
2023-01-30T11:44:37.301Z,0.69
2023-01-30T11:47:08.779Z,-0.00
2023-01-30T11:49:50.879Z,0.90
2023-01-30T11:52:30.413Z,1.48
2023-01-30T11:55:08.547Z,1.39
2023-01-30T11:57:48.535Z,1.42
2023-01-30T12:00:20.527Z,0.70
2023-01-30T12:02:48.611Z,0.14
2023-01-30T12:05:28.576Z,-0.31
2023-01-30T12:08:24.658Z,0.16
2023-01-30T12:11:01.578Z,0.51
2023-01-30T12:13:34.007Z,0.39
2023-01-30T12:16:41.685Z,-0.04
2023-01-30T12:19:21.631Z,-0.50
2023-01-30T12:21:54.320Z,0.43
2023-01-30T12:24:50.391Z,-0.38
2023-01-30T12:27:23.950Z,-0.66
2023-01-30T12:30:03.021Z,-0.69
2023-01-30T12:32:31.975Z,-1.51
2023-01-30T12:34:59.640Z,-0.73
2023-01-30T12:38:02.174Z,-0.70
2023-01-30T12:40:35.695Z,-0.15
2023-01-30T12:43:24.939Z,-0.94
2023-01-30T12:45:55.617Z,-0.74
2023-01-30T12:48:48.503Z,-0.96
2023-01-30T12:51:40.664Z,-0.99
2023-01-30T12:54:23.859Z,-1.16
2023-01-30T12:56:53.356Z,-1.02
2023-01-30T12:59:36.358Z,-0.92
2023-01-30T13:02:51.853Z,-1.30
2023-01-30T13:05:42.695Z,-1.07
2023-01-30T13:08:37.796Z,-1.11
2023-01-30T13:11:45.308Z,-1.03
2023-01-30T13:14:16.073Z,-0.85
2023-01-30T13:16:46.786Z,-1.01
2023-01-30T13:19:17.197Z,-0.17
2023-01-30T13:22:17.800Z,-0.41
2023-01-30T13:25:19.831Z,-1.01
2023-01-30T13:27:54.105Z,-0.90
2023-01-30T13:30:25.215Z,-0.75
2023-01-30T13:32:57.265Z,-0.91
2023-01-30T13:35:32.476Z,-1.22
2023-01-30T13:38:00.476Z,-1.52
2023-01-30T13:40:29.128Z,-1.12
2023-01-30T13:43:04.699Z,-1.48
2023-01-30T13:45:34.243Z,-1.37
2023-01-30T13:48:42.331Z,-1.62
2023-01-30T13:51:45.210Z,-1.57
2023-01-30T13:54:21.968Z,-1.16
2023-01-30T13:56:51.375Z,-1.14
2023-01-30T13:59:28.004Z,-1.09
2023-01-30T14:02:04.805Z,-1.45
2023-01-30T14:04:39.617Z,-1.04
2023-01-30T14:07:30.392Z,-0.74
2023-01-30T14:10:10.480Z,-0.80
2023-01-30T14:12:42.383Z,-1.02
2023-01-30T14:15:16.475Z,-0.59
2023-01-30T14:18:00.141Z,-1.23
2023-01-30T14:20:46.913Z,-1.17
2023-01-30T14:23:34.195Z,-0.76
2023-01-30T14:26:02.058Z,-0.92
2023-01-30T14:28:29.735Z,-1.32
2023-01-30T14:31:01.455Z,-1.18
2023-01-30T14:33:32.968Z,-1.31
2023-01-30T14:36:00.707Z,-1.31
2023-01-30T14:38:38.389Z,-0.30
2023-01-30T14:41:06.883Z,-0.03
2023-01-30T14:43:37.376Z,-0.06
2023-01-30T14:46:08.921Z,-0.43
2023-01-30T14:48:53.297Z,-0.38
2023-01-30T14:51:39.215Z,-0.60
2023-01-30T14:54:13.330Z,-0.39
2023-01-30T14:56:49.873Z,-0.25
2023-01-30T14:59:17.563Z,0.23
2023-01-30T15:01:57.663Z,0.08
2023-01-30T15:04:31.772Z,0.34
2023-01-30T15:07:01.029Z,-0.09
2023-01-30T15:09:28.995Z,0.71
2023-01-30T15:12:26.816Z,-0.05
2023-01-30T15:15:29.983Z,0.12
2023-01-30T15:18:08.374Z,0.52
2023-01-30T15:21:01.540Z,-0.16
2023-01-30T15:24:03.316Z,0.17
2023-01-30T15:26:37.680Z,0.12
2023-01-30T15:29:33.345Z,0.03
2023-01-30T15:32:02.179Z,0.59
2023-01-30T15:34:31.000Z,0.66
2023-01-30T15:36:58.697Z,0.78
2023-01-30T15:39:27.945Z,0.75
2023-01-30T15:42:00.950Z,0.82
2023-01-30T15:44:37.620Z,0.77
2023-01-30T15:47:49.647Z,0.82
2023-01-30T15:50:18.379Z,0.52
2023-01-30T15:52:49.329Z,0.53
2023-01-30T15:55:21.377Z,0.70
2023-01-30T15:57:51.697Z,0.82
2023-01-30T16:00:33.798Z,0.85
2023-01-30T16:03:01.888Z,0.95
2023-01-30T16:05:29.817Z,0.96
2023-01-30T16:07:58.055Z,0.78
2023-01-30T16:10:27.661Z,0.39
2023-01-30T16:12:56.875Z,0.72
2023-01-30T16:15:59.895Z,0.37
2023-01-30T16:18:37.856Z,-0.20
2023-01-30T16:21:22.479Z,0.35
2023-01-30T16:24:13.237Z,0.18
2023-01-30T16:26:48.908Z,0.25
2023-01-30T16:29:20.830Z,0.42
2023-01-30T16:31:49.718Z,0.15
2023-01-30T16:34:37.141Z,-0.63
2023-01-30T16:37:16.857Z,-0.07
2023-01-30T16:39:47.851Z,-0.54
2023-01-30T16:42:28.838Z,0.04
2023-01-30T16:45:35.375Z,-0.08
2023-01-30T16:48:24.303Z,-0.60
2023-01-30T16:51:01.102Z,-0.48
2023-01-30T16:53:29.747Z,-0.84
2023-01-30T16:56:05.718Z,-0.37
2023-01-30T16:58:34.191Z,-0.47
2023-01-30T17:01:03.304Z,-0.29
2023-01-30T17:03:36.843Z,-1.53
2023-01-30T17:06:12.553Z,-0.90
2023-01-30T17:08:54.430Z,-0.76
2023-01-30T17:11:35.837Z,-1.11
2023-01-30T17:14:31.895Z,-0.60
2023-01-30T17:17:03.864Z,-0.87
2023-01-30T17:19:31.695Z,-0.80
2023-01-30T17:22:00.052Z,-0.32
2023-01-30T17:24:28.868Z,-0.96
2023-01-30T17:27:02.275Z,-0.44
2023-01-30T17:29:46.791Z,-1.41
2023-01-30T17:32:15.405Z,-0.75
2023-01-30T17:34:43.238Z,-0.74
2023-01-30T17:37:21.507Z,-1.16
2023-01-30T17:39:49.381Z,-0.69
2023-01-30T17:42:22.099Z,-0.61
2023-01-30T17:44:50.021Z,-0.31
2023-01-30T17:47:17.792Z,-0.28
2023-01-30T17:49:45.507Z,-0.60
2023-01-30T17:52:13.325Z,-1.27
2023-01-30T17:54:41.066Z,-0.93
2023-01-30T17:57:10.426Z,-1.17
2023-01-30T17:59:38.182Z,-1.05
2023-01-30T18:02:06.199Z,-1.37
2023-01-30T18:04:33.931Z,-1.45
2023-01-30T18:07:04.559Z,-1.45
2023-01-30T18:09:32.411Z,-1.59
2023-01-30T18:12:00.227Z,-1.51
2023-01-30T18:14:27.932Z,-2.03
2023-01-30T18:17:00.018Z,-1.91
2023-01-30T18:19:28.375Z,-2.05
2023-01-30T18:21:58.321Z,-2.17
2023-01-30T18:24:26.114Z,-2.01
2023-01-30T18:26:53.866Z,-1.95
2023-01-30T18:29:21.623Z,-2.20
2023-01-30T18:31:49.456Z,-2.03
2023-01-30T18:34:17.392Z,-2.23
2023-01-30T18:36:45.108Z,-1.94
2023-01-30T18:39:13.119Z,-2.45
2023-01-30T18:41:40.792Z,-1.93
2023-01-30T18:44:10.301Z,-1.93
2023-01-30T18:46:38.071Z,-2.35
2023-01-30T18:49:08.211Z,-2.20
2023-01-30T18:51:35.891Z,-1.95
2023-01-30T18:54:03.654Z,-2.20
2023-01-30T18:56:33.137Z,-2.08
2023-01-30T18:59:03.884Z,-2.52
2023-01-30T19:01:34.673Z,-2.47
2023-01-30T19:04:03.568Z,-1.89
2023-01-30T19:06:31.573Z,-1.65
2023-01-30T19:08:59.358Z,-2.50
2023-01-30T19:11:45.981Z,-2.01
2023-01-30T19:14:14.674Z,-1.68
2023-01-30T19:16:42.454Z,-2.54
2023-01-30T19:19:10.279Z,-1.89
2023-01-30T19:21:38.283Z,-1.70
2023-01-30T19:24:07.038Z,-2.09
2023-01-30T19:26:35.308Z,-1.88
2023-01-30T19:29:03.155Z,-1.88
2023-01-30T19:31:31.051Z,-2.40
2023-01-30T19:34:04.720Z,-2.59
2023-01-30T19:36:33.507Z,-2.26
2023-01-30T19:39:03.498Z,-2.94
2023-01-30T19:41:32.922Z,-2.50
2023-01-30T19:44:01.545Z,-3.13
2023-01-30T19:46:29.488Z,-3.01
2023-01-30T19:48:57.564Z,-2.73
2023-01-30T19:51:29.585Z,-2.92
2023-01-30T19:54:02.591Z,-3.17
2023-01-30T19:56:30.545Z,-3.12
2023-01-30T19:58:58.924Z,-3.20
2023-01-30T20:01:29.841Z,-2.79
2023-01-30T20:03:57.779Z,-2.87
2023-01-30T20:06:27.036Z,-3.41
2023-01-30T20:09:02.465Z,-3.11
2023-01-30T20:11:30.240Z,-3.25
2023-01-30T20:13:58.540Z,-2.97
2023-01-30T20:16:27.681Z,-2.98
2023-01-30T20:18:57.770Z,-2.89
2023-01-30T20:21:25.787Z,-2.51
2023-01-30T20:23:53.695Z,-3.04
2023-01-30T20:26:23.109Z,-2.65
2023-01-30T20:28:50.867Z,-2.78
2023-01-30T20:31:20.665Z,-2.42
2023-01-30T20:33:48.672Z,-2.62
2023-01-30T20:36:18.762Z,-2.84
2023-01-30T20:38:47.499Z,-2.75
2023-01-30T20:41:19.535Z,-2.00
2023-01-30T20:43:51.789Z,-2.60
2023-01-30T20:46:21.449Z,-2.78
2023-01-30T20:48:49.572Z,-2.33
2023-01-30T20:51:19.217Z,-2.52
2023-01-30T20:53:51.930Z,-2.49
2023-01-30T20:56:20.324Z,-2.15
2023-01-30T20:58:48.013Z,-1.72
2023-01-30T21:01:18.344Z,-1.85
2023-01-30T21:03:53.126Z,-1.83
2023-01-30T21:06:37.173Z,-1.39
2023-01-30T21:09:15.101Z,-1.15
2023-01-30T21:11:42.925Z,-1.73
2023-01-30T21:14:10.836Z,-1.31
2023-01-30T21:16:38.734Z,-1.14
2023-01-30T21:19:08.283Z,-1.05
2023-01-30T21:21:40.909Z,-0.93
2023-01-30T21:24:11.481Z,-1.13
2023-01-30T21:26:40.123Z,-0.87
2023-01-30T21:29:08.499Z,-1.45
2023-01-30T21:31:37.177Z,-0.93
2023-01-30T21:34:05.745Z,-1.02
2023-01-30T21:36:33.480Z,-0.68
2023-01-30T21:39:19.786Z,-1.39
2023-01-30T21:42:06.107Z,-1.10
2023-01-30T21:44:37.677Z,-1.21
2023-01-30T21:47:05.939Z,-1.40
2023-01-30T21:49:34.043Z,-0.63
2023-01-30T21:52:01.769Z,-0.54
2023-01-30T21:54:29.623Z,-0.78
2023-01-30T21:56:57.386Z,-0.46
2023-01-30T21:59:25.096Z,-0.98
2023-01-30T22:01:52.810Z,-1.29
2023-01-30T22:04:20.578Z,-1.38
2023-01-30T22:06:48.275Z,-1.30
2023-01-30T22:09:16.149Z,-2.04
2023-01-30T22:11:44.014Z,-0.99
2023-01-30T22:14:13.573Z,-0.63
2023-01-30T22:16:41.420Z,-1.12
2023-01-30T22:19:09.736Z,-1.17
2023-01-30T22:21:38.884Z,-1.35
2023-01-30T22:24:08.347Z,-1.20
2023-01-30T22:26:36.721Z,-0.98
2023-01-30T22:29:04.895Z,-0.73
2023-01-30T22:31:36.367Z,-0.70
2023-01-30T22:34:04.523Z,-1.04
2023-01-30T22:36:33.144Z,-1.67
2023-01-30T22:39:01.103Z,-1.32
2023-01-30T22:41:30.170Z,-1.75
2023-01-30T22:43:59.326Z,-1.73
2023-01-30T22:46:31.397Z,-1.89
2023-01-30T22:49:00.060Z,-2.10
2023-01-30T22:51:29.861Z,-1.90
2023-01-30T22:54:02.311Z,-2.09
2023-01-30T22:56:35.146Z,-2.06
2023-01-30T22:59:04.093Z,-1.53
2023-01-30T23:01:37.104Z,-1.13
2023-01-30T23:04:16.260Z,-0.75
2023-01-30T23:06:44.215Z,-0.75
2023-01-30T23:09:14.595Z,-1.02
2023-01-30T23:11:44.094Z,-1.12
2023-01-30T23:14:14.149Z,-1.36
2023-01-30T23:16:44.173Z,-1.04
2023-01-30T23:19:13.054Z,-2.10
2023-01-30T23:21:42.751Z,-1.57
2023-01-30T23:24:18.229Z,-2.57
2023-01-30T23:26:48.113Z,-2.64
2023-01-30T23:29:17.339Z,-2.40
2023-01-30T23:31:45.522Z,-2.11
2023-01-30T23:34:17.790Z,-1.93
2023-01-30T23:36:45.658Z,-1.34
2023-01-30T23:39:13.658Z,-1.27
2023-01-30T23:41:41.746Z,-1.22
2023-01-30T23:44:09.511Z,-1.40
2023-01-30T23:46:39.088Z,-1.75
2023-01-30T23:49:08.600Z,-1.30
2023-01-30T23:51:37.499Z,-1.06
2023-01-30T23:54:05.496Z,-1.30
2023-01-30T23:56:35.616Z,-1.08
2023-01-30T23:59:03.822Z,-1.52
